ADDS METAR Data INFO
IDs: Format: Raw Decoded Include TAF

Data at: 0038 UTC 21 Jan 2018

METAR for:KFFO (Wright-Patterson AFB, OH, US)
Text:KFFO 202356Z 17006KT 10SM OVC025 06/M01 A3008 RMK AO2A SLP196 T00581014 10076 20050 52013
Temperature: 5.8°C ( 42°F)
Dewpoint: -1.4°C ( 29°F) [RH = 60%]
Pressure (altimeter):30.08 inches Hg (1018.7 mb) [Sea level pressure: 1019.6 mb]
Winds:from the S (170 degrees) at 7 MPH (6 knots; 3.1 m/s)
Visibility:10 or more sm (16+ km)
Ceiling:2500 feet AGL
Clouds: overcast cloud deck at 2500 feet AGL